createdAt,value
2023-01-13T00:01:47.830Z,25.20
2023-01-13T00:04:35.615Z,24.17
2023-01-13T00:07:20.973Z,24.40
2023-01-13T00:10:11.659Z,26.05
2023-01-13T00:12:56.867Z,24.05
2023-01-13T00:15:42.176Z,24.45
2023-01-13T00:18:27.715Z,24.65
2023-01-13T00:21:15.938Z,21.00
2023-01-13T00:24:01.627Z,23.25
2023-01-13T00:26:47.004Z,23.67
2023-01-13T00:29:32.177Z,24.92
2023-01-13T00:32:17.432Z,20.85
2023-01-13T00:35:02.450Z,20.30
2023-01-13T00:37:47.786Z,20.75
2023-01-13T00:40:33.158Z,20.92
2023-01-13T00:43:24.014Z,23.65
2023-01-13T00:46:10.902Z,20.48
2023-01-13T00:48:56.207Z,19.30
2023-01-13T00:51:41.371Z,21.87
2023-01-13T00:54:26.721Z,20.88
2023-01-13T00:57:12.013Z,22.27
2023-01-13T00:59:59.187Z,26.25
2023-01-13T01:02:44.545Z,29.00
2023-01-13T01:05:30.212Z,26.10
2023-01-13T01:08:15.351Z,26.95
2023-01-13T01:11:02.535Z,26.58
2023-01-13T01:13:49.472Z,25.02
2023-01-13T01:16:35.194Z,28.23
2023-01-13T01:19:20.637Z,31.17
2023-01-13T01:22:05.893Z,30.27
2023-01-13T01:24:51.365Z,29.63
2023-01-13T01:27:36.675Z,27.30
2023-01-13T01:30:27.741Z,25.20
2023-01-13T01:33:16.792Z,25.30
2023-01-13T01:36:03.102Z,24.00
2023-01-13T01:38:49.176Z,22.60
2023-01-13T01:41:35.711Z,23.15
2023-01-13T01:44:42.863Z,19.40
2023-01-13T01:47:29.960Z,19.95
2023-01-13T01:50:15.861Z,19.77
2023-01-13T01:53:13.189Z,19.25
2023-01-13T01:55:59.753Z,14.68
2023-01-13T01:58:52.256Z,17.83
2023-01-13T02:01:38.633Z,18.25
2023-01-13T02:04:28.197Z,17.98
2023-01-13T02:07:13.718Z,16.00
2023-01-13T02:10:01.929Z,16.37
2023-01-13T02:12:48.254Z,15.63
2023-01-13T02:15:50.093Z,17.33
2023-01-13T02:18:48.709Z,14.27
2023-01-13T02:22:00.781Z,19.40
2023-01-13T02:25:01.526Z,20.00
2023-01-13T02:27:59.165Z,16.40
2023-01-13T02:31:05.974Z,16.80
2023-01-13T02:33:54.256Z,12.00
2023-01-13T02:36:50.593Z,11.82
2023-01-13T02:39:57.437Z,13.90
2023-01-13T02:43:36.828Z,13.13
2023-01-13T02:46:28.402Z,12.95
2023-01-13T02:49:19.727Z,16.85
2023-01-13T02:52:16.008Z,20.98
2023-01-13T02:55:30.959Z,24.33
2023-01-13T02:58:19.105Z,12.90
2023-01-13T03:01:04.374Z,23.85
2023-01-13T03:03:50.141Z,25.90
2023-01-13T03:07:12.928Z,20.83
2023-01-13T03:10:19.325Z,16.75
2023-01-13T03:13:42.320Z,12.73
2023-01-13T03:16:31.509Z,12.55
2023-01-13T03:19:31.265Z,10.60
2023-01-13T03:22:31.289Z,9.38
2023-01-13T03:25:24.036Z,9.18
2023-01-13T03:28:12.953Z,9.50
2023-01-13T03:31:03.931Z,8.88
2023-01-13T03:33:55.695Z,9.02
2023-01-13T03:36:41.074Z,8.52
2023-01-13T03:39:31.462Z,7.40
2023-01-13T03:42:29.319Z,7.12
2023-01-13T03:45:16.881Z,8.63
2023-01-13T03:48:07.399Z,8.00
2023-01-13T03:50:54.260Z,7.53
2023-01-13T03:53:43.822Z,7.95
2023-01-13T03:56:39.496Z,8.10
2023-01-13T03:59:28.067Z,8.88
2023-01-13T04:02:37.883Z,9.80
2023-01-13T04:05:23.683Z,8.68
2023-01-13T04:08:21.691Z,10.63
2023-01-13T04:11:14.964Z,11.38
2023-01-13T04:14:01.652Z,13.18
2023-01-13T04:16:47.776Z,13.75
2023-01-13T04:19:33.179Z,12.52
2023-01-13T04:22:18.568Z,10.07
2023-01-13T04:25:04.535Z,8.77
2023-01-13T04:27:49.630Z,8.18
2023-01-13T04:30:35.057Z,12.60
2023-01-13T04:33:20.691Z,20.55
2023-01-13T04:36:06.477Z,8.80
2023-01-13T04:38:51.733Z,9.30
2023-01-13T04:41:55.856Z,9.38
2023-01-13T04:44:41.055Z,10.68
2023-01-13T04:47:26.219Z,12.30
2023-01-13T04:50:11.841Z,11.48
2023-01-13T04:52:57.430Z,11.48
2023-01-13T04:55:44.531Z,11.23
2023-01-13T04:58:29.571Z,13.48
2023-01-13T05:01:15.451Z,11.68
2023-01-13T05:04:00.674Z,10.77
2023-01-13T05:06:46.040Z,10.50
2023-01-13T05:09:31.370Z,11.18
2023-01-13T05:12:35.553Z,10.63
2023-01-13T05:15:39.418Z,10.57
2023-01-13T05:21:30.813Z,12.82
2023-01-13T05:24:34.446Z,10.23
2023-01-13T05:27:19.647Z,11.45
2023-01-13T05:30:06.384Z,12.02
2023-01-13T05:32:51.563Z,12.25
2023-01-13T05:35:41.011Z,12.23
2023-01-13T05:38:26.297Z,12.20
2023-01-13T05:41:30.669Z,10.75
2023-01-13T05:47:01.412Z,8.60
2023-01-13T05:49:46.474Z,9.90
2023-01-13T05:52:32.584Z,11.45
2023-01-13T05:55:17.884Z,10.65
2023-01-13T05:58:03.627Z,12.90
2023-01-13T06:00:49.181Z,12.57
2023-01-13T06:03:35.962Z,11.57
2023-01-13T06:06:21.272Z,10.82
2023-01-13T06:09:06.641Z,13.13
2023-01-13T06:11:52.272Z,11.55
2023-01-13T06:14:40.392Z,13.10
2023-01-13T06:17:25.616Z,12.65
2023-01-13T06:20:13.362Z,11.57
2023-01-13T06:22:59.674Z,12.68
2023-01-13T06:25:47.443Z,10.65
2023-01-13T06:28:33.501Z,11.77
2023-01-13T06:31:19.174Z,12.05
2023-01-13T06:34:11.142Z,11.15
2023-01-13T06:36:56.764Z,12.70
2023-01-13T06:39:42.739Z,13.40
2023-01-13T06:42:49.064Z,13.30
2023-01-13T06:45:35.062Z,11.02
2023-01-13T06:48:24.449Z,14.02
2023-01-13T06:51:09.595Z,14.02
2023-01-13T06:53:54.889Z,15.18
2023-01-13T06:56:40.597Z,15.50
2023-01-13T06:59:31.198Z,20.23
2023-01-13T07:02:16.623Z,17.23
2023-01-13T07:05:01.766Z,17.83
2023-01-13T07:07:47.793Z,18.62
2023-01-13T07:10:33.946Z,15.63
2023-01-13T07:13:38.829Z,16.05
2023-01-13T07:16:25.881Z,16.10
2023-01-13T07:19:12.019Z,17.02
2023-01-13T07:21:57.159Z,15.88
2023-01-13T07:24:43.825Z,18.30
2023-01-13T07:27:29.541Z,16.87
2023-01-13T07:30:15.072Z,15.68
2023-01-13T07:33:00.408Z,15.73
2023-01-13T07:35:46.879Z,16.25
2023-01-13T07:38:33.986Z,18.12
2023-01-13T07:41:38.230Z,16.65
2023-01-13T07:47:13.993Z,17.08
2023-01-13T07:49:59.820Z,18.17
2023-01-13T07:52:45.124Z,18.05
2023-01-13T07:55:30.431Z,21.00
2023-01-13T07:58:15.973Z,18.00
2023-01-13T08:01:07.938Z,16.52
2023-01-13T08:03:54.953Z,12.77
2023-01-13T08:06:41.517Z,14.00
2023-01-13T08:09:27.026Z,13.50
2023-01-13T08:12:30.886Z,14.38
2023-01-13T08:15:16.564Z,14.10
2023-01-13T08:18:02.108Z,13.43
2023-01-13T08:20:48.857Z,13.30
2023-01-13T08:26:19.527Z,12.15
2023-01-13T08:29:04.656Z,14.00
2023-01-13T08:31:50.125Z,14.30
2023-01-13T08:34:36.168Z,13.60
2023-01-13T08:37:21.364Z,13.30
2023-01-13T08:40:13.545Z,14.77
2023-01-13T08:42:59.706Z,14.80
2023-01-13T08:45:45.053Z,13.85
2023-01-13T08:48:31.833Z,13.93
2023-01-13T08:51:17.593Z,14.60
2023-01-13T08:54:03.378Z,13.62
2023-01-13T08:56:49.044Z,13.52
2023-01-13T08:59:34.998Z,12.82
2023-01-13T09:02:22.324Z,14.80
2023-01-13T09:05:08.396Z,13.98
2023-01-13T09:07:53.632Z,13.40
2023-01-13T09:10:40.597Z,14.95
2023-01-13T09:13:26.114Z,13.85
2023-01-13T09:16:11.433Z,14.20
2023-01-13T09:18:56.840Z,13.77
2023-01-13T09:21:42.731Z,13.90
2023-01-13T09:24:28.219Z,13.73
2023-01-13T09:27:15.217Z,15.52
2023-01-13T09:30:00.487Z,14.07
2023-01-13T09:32:45.872Z,14.63
2023-01-13T09:35:31.217Z,14.55
2023-01-13T09:38:17.293Z,15.25
2023-01-13T09:41:23.099Z,18.45
2023-01-13T09:44:14.616Z,14.35
2023-01-13T09:47:04.302Z,13.75
2023-01-13T09:49:50.884Z,15.40
2023-01-13T09:52:36.804Z,13.55
2023-01-13T09:55:36.950Z,13.20
2023-01-13T09:58:22.911Z,12.75
2023-01-13T10:01:23.679Z,12.18
2023-01-13T10:04:13.491Z,11.82
2023-01-13T10:07:03.095Z,11.98
2023-01-13T10:09:52.951Z,13.10
2023-01-13T10:12:57.203Z,13.73
2023-01-13T10:16:26.523Z,13.93
2023-01-13T10:19:34.994Z,13.32
2023-01-13T10:22:46.045Z,12.95
2023-01-13T10:25:54.080Z,12.65
2023-01-13T10:28:39.985Z,11.73
2023-01-13T10:31:26.205Z,12.63
2023-01-13T10:34:12.085Z,12.43
2023-01-13T10:37:08.352Z,12.98
2023-01-13T10:39:57.870Z,11.80
2023-01-13T10:42:43.481Z,12.40
2023-01-13T10:45:28.842Z,13.50
2023-01-13T10:48:17.249Z,17.90
2023-01-13T10:51:18.900Z,12.73
2023-01-13T10:54:23.050Z,13.15
2023-01-13T10:57:23.315Z,11.60
2023-01-13T11:00:26.436Z,12.37
2023-01-13T11:03:19.067Z,14.45
2023-01-13T11:06:04.806Z,13.87
2023-01-13T11:08:55.253Z,12.45
2023-01-13T11:11:43.391Z,12.70
2023-01-13T11:14:45.232Z,13.38
2023-01-13T11:18:00.472Z,13.73
2023-01-13T11:20:47.944Z,12.75
2023-01-13T11:23:41.781Z,12.82
2023-01-13T11:26:40.909Z,13.07
2023-01-13T11:29:43.124Z,13.18
2023-01-13T11:32:31.749Z,14.27
2023-01-13T11:35:18.965Z,14.90
2023-01-13T11:38:28.764Z,13.38
2023-01-13T11:41:21.542Z,15.93
2023-01-13T11:44:09.927Z,13.90
2023-01-13T11:46:55.268Z,14.30
2023-01-13T11:49:41.085Z,14.98
2023-01-13T11:53:01.675Z,14.95
2023-01-13T11:55:54.587Z,13.25
2023-01-13T11:59:14.312Z,14.70
2023-01-13T12:02:14.860Z,13.60
2023-01-13T12:05:26.796Z,14.65
2023-01-13T12:08:35.748Z,14.65
2023-01-13T12:12:02.490Z,14.40
2023-01-13T12:14:58.399Z,13.35
2023-01-13T12:18:20.939Z,16.08
2023-01-13T12:21:18.679Z,16.17
2023-01-13T12:24:19.096Z,16.65
2023-01-13T12:27:11.967Z,15.32
2023-01-13T12:29:59.802Z,15.25
